Terminal Aerodrome Forecast
Issued by NWS

Home | Current Version | Previous Version | Text Only | Print | Product List | Glossary On
Versions: 1 2 3 4 5 6 7 8 9 10 11 12 13 14 15 16 17 18 19 20 21
000
FTUS42 KMHX 231223 AAA
TAFPGV
TAF AMD
KPGV 231223Z 2312/2412 22006KT P6SM SCT015
      TEMPO 2312/2314 BKN015
     FM231400 23009KT P6SM SCT015 BKN090
     FM231600 25010G16KT P6SM SCT030 BKN090
     FM232100 24006KT 6SM -SHRA VCTS SCT020 BKN035CB
     FM240300 VRB04KT P6SM SCT015 BKN060
     FM240900 04004KT P6SM SCT020
      AMD LTD TO CLD VIS AND WIND=

USA.gov is the U.S. government's official web portal to all federal, state and local government web resources and services.